Home   Weather   USA   Wichita   Past weeks
Flag for USA

Past Weather in Wichita, Kansas, USA — Yesterday and Last 2 Weeks

Currently: 71 °F. Clear. (Weather station: Wichita Eisenhower National Airport, USA). See more current weather

Past Weather in Wichita — Graph

°F

Wichita Temperature Yesterday

Maximum temperature yesterday: 95 °F (at 2:53 pm)
Minimum temperature yesterday: 57 °F (at 4:53 am)
Average temperature yesterday: 76 °F

High & Low Weather Summary for the Past Weeks

 TemperatureHumidityPressure
High95 °F (Sep 26, 2:53 pm)96% (Sep 15, 2:53 am)30.37 "Hg (Sep 15, 2:53 am)
Low48 °F (Sep 23, 5:53 am)18% (Sep 26, 3:53 pm)29.67 "Hg (Sep 20, 4:53 am)
Average74 °F58%29.98 "Hg
* Reported Sep 11 11:53 pm — Sep 26 11:53 pm, Wichita. Weather by CustomWeather, © 2021

Note: Actual official high and low records may vary slightly from our data, if they occured in-between our weather recording intervals... More about our weather records

Wichita Weather History for the Previous 24 Hours

Scroll right to see more
 ConditionsComfort  
Time TempWeatherWind HumidityBarometerVisibility
11:53 pm
Sun, Sep 26
73 °FClear.13 mph40%29.84 "Hg10 mi
10:53 pm71 °FClear.12 mph44%29.85 "Hg10 mi
9:53 pm70 °FClear.10 mph39%29.85 "Hg10 mi
8:53 pm78 °FClear.13 mph30%29.82 "Hg10 mi
7:53 pm81 °FPassing clouds.12 mph28%29.82 "Hg10 mi
6:53 pm87 °FSunny.14 mph23%29.80 "Hg10 mi
5:53 pm92 °FSunny.23 mph19%29.79 "Hg10 mi
4:53 pm93 °FSunny.28 mph18%29.80 "Hg10 mi
3:53 pm94 °FSunny.30 mph18%29.81 "Hg10 mi
2:53 pm95 °FSunny.25 mph19%29.82 "Hg10 mi
1:53 pm93 °FSunny.25 mph20%29.85 "Hg10 mi
12:53 pm91 °FSunny.17 mph24%29.88 "Hg10 mi
11:53 am86 °FSunny.22 mph28%29.90 "Hg10 mi
10:53 am81 °FSunny.21 mph34%29.91 "Hg10 mi
9:53 am75 °FSunny.16 mph42%29.92 "Hg10 mi
8:53 am68 °FSunny.13 mph53%29.92 "Hg10 mi
7:53 am63 °FSunny.15 mph60%29.92 "Hg10 mi
6:53 am63 °FClear.14 mph60%29.91 "Hg10 mi
5:53 am60 °FClear.12 mph67%29.92 "Hg10 mi
4:53 am57 °FClear.8 mph69%29.92 "Hg10 mi
3:53 am58 °FClear.9 mph67%29.93 "Hg10 mi
2:53 am61 °FClear.10 mph58%29.94 "Hg10 mi
1:53 am62 °FClear.8 mph56%29.95 "Hg10 mi
Weather by CustomWeather, © 2021

See weather overview